Accueil
METAR-TAF:

METAR-TAF

Aéroports :

Aéroport international de Ouagadougou

Ouagadougou, Burkina Faso

latitude: 12-21N, longitude: 001-31W, altitude: 316 m

Observation

Le bulletin a été fait il y a 17 minutes, à 11:00 UTC
Vent 9 kt de ouest
Température 31°C
Humidité 63%
Pression 1015 hPa
Visibilité 10 km ou plus
Nuages épars à une hauteur de 2000 ft

METAR: DFFD 201100Z 28009KT 9999 SCT020 31/23 Q1015 NOSIG

Heure: 11:17 (11:17 UTC)

Prévision

Le bulletin a été fait il y a 6 heures et 17 minutes, à 05:00 UTC
Prévision valable du 20 à 06 UTC au 21 à 12 UTC
Vent 8 kt de ouest/sud-ouest
Visibilité 10 km ou plus
Nuages épars à une hauteur de 2000 ft
Temporairement
du 20 à 14 UTC au 20 à 24 UTC
Visibilité: 4000 m
Nuages épars à une hauteur de 2000 ft
Nuages épars à une hauteur de 3300 ft, Cumulonimbus.
orage, pluie

TAF: DFFD 200500Z 2006/2112 24008KT 9999 SCT020 TEMPO 2014/2024 4000 TSRA SCT020 SCT033CB

Observations et prévisions météorologiques de plus de 4000 aéroports (messages METAR et TAF).

Les stations disponibles sont représentées par des disques jaunes et rouges sur la carte.

Passer la souris dessus pour voir le nom de la station.

Cliquer dessus pour voir les observations et prévisions météorologiques.

Pour changer de carte: cliquez sur les boutons verts avec une croix noire pour zoomer, sur le bouton vert avec un tiret pour effectuer un zoom arrière, ou sur les flèches vertes pour les cartes adjacentes.


METAR-TAF: